Airfield :







YOU CAN JOIN US ON...

 
LOGIN :

Register | Disclaimer

   EN    FR    IT 

 









Legend :    VFR   Marginal VFR   IFR   Intensive IFR   Very Intensive IFR
Visi :
Ceiling :
>= 8 km
>= 3000ft
5 to 8 km
1000 to 3000 ft
1500m to 5 km
500 to 1000 ft
800 to 1500m
200 to 500 ft
< 800m
< 200 ft
Symbols :   Thunderstorms  Fog  Heavy snow  Heavy precipitations  Wind > 20 kt







- Airport Elevation : 160 ft
- IATA code : YYR


CYYR - Goose Bay

CURRENT METAR :
  • 210000Z 05004KT 15SM BKN021 OVC045 05/00 A3001 RMK SC6SC2 SLP164

EXPIRED METARs :
  • 202334Z 04004KT 15SM BKN023 OVC045 05/00 A3000 RMK SC5SC3 SLP163
  • 202300Z 05004KT 15SM -SHRA BKN026 OVC045 05/00 A3000 RMK SC5SC3 SLP162
  • 202200Z 03005KT 15SM -SHRA SCT025 OVC045 06/02 A3000 RMK SC4SC4 SLP161
  • 202123Z 04005KT 15SM -SHRA SCT027 OVC048 06/01 A3000 RMK SC3SC5 SLP161

TAF TAF CYYR
Valid from the 21 at 00:00 until the 22 at 00:00 UTC


202330Z 2100/2124 05005KT P6SM BKN025 OVC040
TEMPO 2100/2102 5SM -RA BR BKN020 OVC040
FM210200 05008KT 6SM -RA BR SCT010 OVC020
TEMPO 2102/2106 3SM -RA BR BKN010 OVC020
FM210600 05008KT 6SM -RA BR SCT006 OVC012
TEMPO 2106/2109 2SM -RA -DZ BR BKN006 OVC012
FM210900 05012KT 3SM -RA -DZ BR BKN006 OVC012
FM212100 05015KT P6SM BKN008 OVC025 RMK NXT FCST BY 210600Z
CZQX FIR / North America



MET'MAP, your aeronautical weather chart ! - Copyright ORBIFLY December 2007 - Disclaimer

ORBIFLY MET'MAP TEAM :

Programming & Development : Alexandra Zaïnal
Concept & Development : Baudouin d'Aumeries
Co-Development & Prog : Marc-Olivier Méhu
Technical & hardware support : Manuel Goepfert

Contact : metmap@orbifly.com




SOURCES & CREDITS :

   NOAA